sensor_id;sensor_type;location;lat;lon;timestamp;P1;durP1;ratioP1;P2;durP2;ratioP2
42886;SDS011;29032;56.028;92.904;2024-03-25T00:00:41;4.00;;;1.43;;
42886;SDS011;29032;56.028;92.904;2024-03-25T00:05:44;1.83;;;1.20;;
42886;SDS011;29032;56.028;92.904;2024-03-25T00:10:47;3.47;;;1.30;;
42886;SDS011;29032;56.028;92.904;2024-03-25T00:15:49;2.20;;;1.17;;
42886;SDS011;29032;56.028;92.904;2024-03-25T00:20:51;1.83;;;1.10;;
42886;SDS011;29032;56.028;92.904;2024-03-25T00:25:55;2.80;;;1.50;;
42886;SDS011;29032;56.028;92.904;2024-03-25T00:30:57;5.57;;;1.60;;
42886;SDS011;29032;56.028;92.904;2024-03-25T00:35:59;4.97;;;1.90;;
42886;SDS011;29032;56.028;92.904;2024-03-25T00:41:04;4.77;;;1.50;;
42886;SDS011;29032;56.028;92.904;2024-03-25T00:46:06;2.27;;;1.13;;
42886;SDS011;29032;56.028;92.904;2024-03-25T00:51:08;2.70;;;1.40;;
42886;SDS011;29032;56.028;92.904;2024-03-25T00:56:11;2.03;;;1.33;;
42886;SDS011;29032;56.028;92.904;2024-03-25T01:01:14;2.03;;;1.53;;
42886;SDS011;29032;56.028;92.904;2024-03-25T01:06:16;2.10;;;1.13;;
42886;SDS011;29032;56.028;92.904;2024-03-25T01:18:16;4.53;;;1.40;;
42886;SDS011;29032;56.028;92.904;2024-03-25T01:23:18;4.30;;;2.30;;
42886;SDS011;29032;56.028;92.904;2024-03-25T01:28:20;2.90;;;1.60;;
42886;SDS011;29032;56.028;92.904;2024-03-25T01:33:24;1.67;;;1.47;;
42886;SDS011;29032;56.028;92.904;2024-03-25T01:38:26;2.10;;;1.27;;
42886;SDS011;29032;56.028;92.904;2024-03-25T01:43:29;2.33;;;1.10;;
42886;SDS011;29032;56.028;92.904;2024-03-25T01:48:32;3.70;;;1.20;;
42886;SDS011;29032;56.028;92.904;2024-03-25T01:53:34;5.77;;;1.27;;
42886;SDS011;29032;56.028;92.904;2024-03-25T01:58:37;9.77;;;1.70;;
42886;SDS011;29032;56.028;92.904;2024-03-25T02:03:41;2.63;;;1.40;;
42886;SDS011;29032;56.028;92.904;2024-03-25T02:08:43;4.97;;;1.80;;
42886;SDS011;29032;56.028;92.904;2024-03-25T02:13:46;5.83;;;1.70;;
42886;SDS011;29032;56.028;92.904;2024-03-25T02:18:50;3.10;;;1.83;;
42886;SDS011;29032;56.028;92.904;2024-03-25T02:23:53;3.23;;;1.47;;
42886;SDS011;29032;56.028;92.904;2024-03-25T02:29:02;2.90;;;1.73;;
42886;SDS011;29032;56.028;92.904;2024-03-25T02:34:04;3.70;;;2.10;;
42886;SDS011;29032;56.028;92.904;2024-03-25T02:39:06;2.50;;;1.40;;
42886;SDS011;29032;56.028;92.904;2024-03-25T02:44:10;3.40;;;1.87;;
42886;SDS011;29032;56.028;92.904;2024-03-25T02:49:13;3.63;;;1.53;;
42886;SDS011;29032;56.028;92.904;2024-03-25T02:54:15;3.60;;;2.10;;
42886;SDS011;29032;56.028;92.904;2024-03-25T02:59:19;3.37;;;1.70;;
42886;SDS011;29032;56.028;92.904;2024-03-25T03:04:21;3.37;;;1.67;;
42886;SDS011;29032;56.028;92.904;2024-03-25T03:09:23;5.47;;;1.60;;
42886;SDS011;29032;56.028;92.904;2024-03-25T03:14:27;2.30;;;1.60;;
42886;SDS011;29032;56.028;92.904;2024-03-25T03:19:29;3.63;;;1.33;;
42886;SDS011;29032;56.028;92.904;2024-03-25T03:24:31;5.10;;;1.60;;
42886;SDS011;29032;56.028;92.904;2024-03-25T03:29:35;2.60;;;1.20;;
42886;SDS011;29032;56.028;92.904;2024-03-25T03:34:37;1.70;;;1.00;;
42886;SDS011;29032;56.028;92.904;2024-03-25T03:39:39;3.23;;;1.77;;
42886;SDS011;29032;56.028;92.904;2024-03-25T03:44:43;3.93;;;1.47;;
42886;SDS011;29032;56.028;92.904;2024-03-25T03:49:45;2.00;;;1.37;;
42886;SDS011;29032;56.028;92.904;2024-03-25T03:54:47;3.30;;;1.47;;
42886;SDS011;29032;56.028;92.904;2024-03-25T03:59:51;6.00;;;1.70;;
42886;SDS011;29032;56.028;92.904;2024-03-25T04:04:53;1.80;;;1.13;;
42886;SDS011;29032;56.028;92.904;2024-03-25T04:09:57;2.60;;;0.80;;
42886;SDS011;29032;56.028;92.904;2024-03-25T04:15:01;1.70;;;1.20;;
42886;SDS011;29032;56.028;92.904;2024-03-25T04:20:03;2.83;;;1.37;;
42886;SDS011;29032;56.028;92.904;2024-03-25T04:25:06;2.83;;;1.10;;
42886;SDS011;29032;56.028;92.904;2024-03-25T04:30:11;1.50;;;1.03;;
42886;SDS011;29032;56.028;92.904;2024-03-25T04:35:13;3.33;;;1.10;;
42886;SDS011;29032;56.028;92.904;2024-03-25T04:40:15;1.33;;;0.90;;
42886;SDS011;29032;56.028;92.904;2024-03-25T04:45:19;1.80;;;0.90;;
42886;SDS011;29032;56.028;92.904;2024-03-25T04:50:21;1.23;;;1.00;;
42886;SDS011;29032;56.028;92.904;2024-03-25T04:55:23;1.87;;;1.10;;
42886;SDS011;29032;56.028;92.904;2024-03-25T05:00:27;1.23;;;0.90;;
42886;SDS011;29032;56.028;92.904;2024-03-25T05:05:29;1.43;;;1.00;;
42886;SDS011;29032;56.028;92.904;2024-03-25T05:10:32;1.13;;;1.00;;
42886;SDS011;29032;56.028;92.904;2024-03-25T05:15:35;5.17;;;1.20;;
42886;SDS011;29032;56.028;92.904;2024-03-25T05:20:37;4.77;;;1.57;;
42886;SDS011;29032;56.028;92.904;2024-03-25T05:25:40;1.67;;;1.37;;
42886;SDS011;29032;56.028;92.904;2024-03-25T05:30:43;4.77;;;1.57;;
42886;SDS011;29032;56.028;92.904;2024-03-25T05:35:46;2.13;;;1.30;;
42886;SDS011;29032;56.028;92.904;2024-03-25T05:40:48;3.40;;;1.00;;
42886;SDS011;29032;56.028;92.904;2024-03-25T05:45:52;1.63;;;1.00;;
42886;SDS011;29032;56.028;92.904;2024-03-25T05:51:00;2.60;;;1.00;;
42886;SDS011;29032;56.028;92.904;2024-03-25T05:56:03;1.60;;;1.07;;
42886;SDS011;29032;56.028;92.904;2024-03-25T06:01:07;1.47;;;1.00;;
42886;SDS011;29032;56.028;92.904;2024-03-25T06:06:09;7.90;;;1.10;;
42886;SDS011;29032;56.028;92.904;2024-03-25T06:11:11;2.60;;;0.73;;
42886;SDS011;29032;56.028;92.904;2024-03-25T06:16:15;1.60;;;0.97;;
42886;SDS011;29032;56.028;92.904;2024-03-25T06:21:17;1.47;;;0.97;;
42886;SDS011;29032;56.028;92.904;2024-03-25T06:26:19;1.17;;;0.80;;
42886;SDS011;29032;56.028;92.904;2024-03-25T06:31:23;1.93;;;1.10;;
42886;SDS011;29032;56.028;92.904;2024-03-25T06:36:25;2.17;;;0.93;;
42886;SDS011;29032;56.028;92.904;2024-03-25T06:41:27;3.30;;;1.30;;
42886;SDS011;29032;56.028;92.904;2024-03-25T06:46:31;1.03;;;0.70;;
42886;SDS011;29032;56.028;92.904;2024-03-25T06:51:33;1.17;;;0.87;;
42886;SDS011;29032;56.028;92.904;2024-03-25T06:56:35;1.43;;;1.07;;
42886;SDS011;29032;56.028;92.904;2024-03-25T07:01:39;0.93;;;0.90;;
42886;SDS011;29032;56.028;92.904;2024-03-25T07:12:01;1.73;;;0.87;;
42886;SDS011;29032;56.028;92.904;2024-03-25T07:17:05;2.30;;;0.90;;
42886;SDS011;29032;56.028;92.904;2024-03-25T07:22:07;2.20;;;1.53;;
42886;SDS011;29032;56.028;92.904;2024-03-25T07:27:10;3.70;;;1.13;;
42886;SDS011;29032;56.028;92.904;2024-03-25T07:32:13;1.90;;;1.10;;
42886;SDS011;29032;56.028;92.904;2024-03-25T07:37:16;1.20;;;1.03;;
42886;SDS011;29032;56.028;92.904;2024-03-25T07:42:18;2.40;;;1.13;;
42886;SDS011;29032;56.028;92.904;2024-03-25T07:47:21;1.00;;;0.90;;
42886;SDS011;29032;56.028;92.904;2024-03-25T07:52:42;1.30;;;1.20;;
42886;SDS011;29032;56.028;92.904;2024-03-25T07:57:44;1.23;;;1.10;;
42886;SDS011;29032;56.028;92.904;2024-03-25T08:02:48;1.40;;;1.30;;
42886;SDS011;29032;56.028;92.904;2024-03-25T08:07:51;1.67;;;1.57;;
42886;SDS011;29032;56.028;92.904;2024-03-25T08:12:53;1.90;;;1.40;;
42886;SDS011;29032;56.028;92.904;2024-03-25T08:17:57;1.87;;;1.40;;
42886;SDS011;29032;56.028;92.904;2024-03-25T08:22:59;3.00;;;1.60;;
42886;SDS011;29032;56.028;92.904;2024-03-25T08:28:01;2.87;;;1.73;;
42886;SDS011;29032;56.028;92.904;2024-03-25T08:33:05;1.60;;;1.50;;
42886;SDS011;29032;56.028;92.904;2024-03-25T08:38:07;1.83;;;1.57;;
42886;SDS011;29032;56.028;92.904;2024-03-25T08:43:09;1.73;;;1.63;;
42886;SDS011;29032;56.028;92.904;2024-03-25T08:48:13;1.60;;;1.50;;
42886;SDS011;29032;56.028;92.904;2024-03-25T08:53:15;3.10;;;1.93;;
42886;SDS011;29032;56.028;92.904;2024-03-25T08:58:18;1.90;;;1.70;;
42886;SDS011;29032;56.028;92.904;2024-03-25T09:03:21;6.43;;;2.03;;
42886;SDS011;29032;56.028;92.904;2024-03-25T09:13:44;3.70;;;1.70;;
42886;SDS011;29032;56.028;92.904;2024-03-25T09:18:47;2.77;;;1.50;;
42886;SDS011;29032;56.028;92.904;2024-03-25T09:23:50;2.10;;;1.53;;
42886;SDS011;29032;56.028;92.904;2024-03-25T09:29:11;2.00;;;1.80;;
42886;SDS011;29032;56.028;92.904;2024-03-25T09:34:15;2.20;;;1.63;;
42886;SDS011;29032;56.028;92.904;2024-03-25T09:39:17;2.47;;;1.70;;
42886;SDS011;29032;56.028;92.904;2024-03-25T09:44:19;2.70;;;1.93;;
42886;SDS011;29032;56.028;92.904;2024-03-25T09:49:25;2.50;;;1.90;;
42886;SDS011;29032;56.028;92.904;2024-03-25T09:54:28;2.77;;;1.60;;
42886;SDS011;29032;56.028;92.904;2024-03-25T09:59:30;4.23;;;2.30;;
42886;SDS011;29032;56.028;92.904;2024-03-25T10:04:36;3.57;;;2.47;;
42886;SDS011;29032;56.028;92.904;2024-03-25T10:09:43;3.63;;;1.93;;
42886;SDS011;29032;56.028;92.904;2024-03-25T10:14:45;4.57;;;1.80;;
42886;SDS011;29032;56.028;92.904;2024-03-25T10:19:48;2.67;;;1.60;;
42886;SDS011;29032;56.028;92.904;2024-03-25T10:24:51;1.90;;;1.70;;
42886;SDS011;29032;56.028;92.904;2024-03-25T10:35:18;2.87;;;2.20;;
42886;SDS011;29032;56.028;92.904;2024-03-25T10:40:20;2.00;;;1.80;;
42886;SDS011;29032;56.028;92.904;2024-03-25T10:45:24;2.53;;;2.03;;
42886;SDS011;29032;56.028;92.904;2024-03-25T10:50:45;2.50;;;1.90;;
42886;SDS011;29032;56.028;92.904;2024-03-25T10:55:50;3.37;;;1.80;;
42886;SDS011;29032;56.028;92.904;2024-03-25T11:00:55;2.07;;;1.40;;
42886;SDS011;29032;56.028;92.904;2024-03-25T11:05:59;3.03;;;1.70;;
42886;SDS011;29032;56.028;92.904;2024-03-25T11:11:01;1.57;;;1.47;;
42886;SDS011;29032;56.028;92.904;2024-03-25T11:16:04;2.23;;;1.73;;
42886;SDS011;29032;56.028;92.904;2024-03-25T11:21:09;3.57;;;2.43;;
42886;SDS011;29032;56.028;92.904;2024-03-25T11:26:16;3.10;;;2.20;;
42886;SDS011;29032;56.028;92.904;2024-03-25T11:31:20;3.37;;;2.30;;
42886;SDS011;29032;56.028;92.904;2024-03-25T11:36:24;2.70;;;2.13;;
42886;SDS011;29032;56.028;92.904;2024-03-25T11:41:26;3.03;;;1.73;;
42886;SDS011;29032;56.028;92.904;2024-03-25T11:46:28;1.40;;;1.30;;
42886;SDS011;29032;56.028;92.904;2024-03-25T11:51:33;1.53;;;1.43;;
42886;SDS011;29032;56.028;92.904;2024-03-25T11:56:36;3.00;;;2.17;;
42886;SDS011;29032;56.028;92.904;2024-03-25T12:01:38;3.03;;;2.27;;
42886;SDS011;29032;56.028;92.904;2024-03-25T12:06:42;3.90;;;3.00;;
42886;SDS011;29032;56.028;92.904;2024-03-25T12:11:45;3.37;;;2.03;;
42886;SDS011;29032;56.028;92.904;2024-03-25T12:16:49;2.57;;;1.70;;
42886;SDS011;29032;56.028;92.904;2024-03-25T12:22:00;1.77;;;1.67;;
42886;SDS011;29032;56.028;92.904;2024-03-25T12:27:02;2.57;;;1.97;;
42886;SDS011;29032;56.028;92.904;2024-03-25T12:32:05;2.13;;;1.90;;
42886;SDS011;29032;56.028;92.904;2024-03-25T12:37:14;2.07;;;1.87;;
42886;SDS011;29032;56.028;92.904;2024-03-25T12:42:17;2.63;;;2.40;;
42886;SDS011;29032;56.028;92.904;2024-03-25T12:47:19;3.37;;;2.17;;
42886;SDS011;29032;56.028;92.904;2024-03-25T12:52:23;5.80;;;2.43;;
42886;SDS011;29032;56.028;92.904;2024-03-25T12:57:25;3.63;;;2.90;;
42886;SDS011;29032;56.028;92.904;2024-03-25T13:02:27;2.83;;;2.50;;
42886;SDS011;29032;56.028;92.904;2024-03-25T13:07:31;3.40;;;2.10;;
42886;SDS011;29032;56.028;92.904;2024-03-25T13:12:33;2.43;;;2.03;;
42886;SDS011;29032;56.028;92.904;2024-03-25T13:17:35;3.23;;;2.10;;
42886;SDS011;29032;56.028;92.904;2024-03-25T13:22:39;3.97;;;2.70;;
42886;SDS011;29032;56.028;92.904;2024-03-25T13:27:41;2.00;;;1.80;;
42886;SDS011;29032;56.028;92.904;2024-03-25T13:32:43;2.63;;;1.90;;
42886;SDS011;29032;56.028;92.904;2024-03-25T13:37:47;3.97;;;2.30;;
42886;SDS011;29032;56.028;92.904;2024-03-25T13:42:49;3.73;;;2.23;;
42886;SDS011;29032;56.028;92.904;2024-03-25T13:47:51;2.00;;;1.73;;
42886;SDS011;29032;56.028;92.904;2024-03-25T13:52:54;3.00;;;2.03;;
42886;SDS011;29032;56.028;92.904;2024-03-25T13:58:15;2.80;;;2.43;;
42886;SDS011;29032;56.028;92.904;2024-03-25T14:03:17;3.00;;;2.30;;
42886;SDS011;29032;56.028;92.904;2024-03-25T14:08:39;3.67;;;2.57;;
42886;SDS011;29032;56.028;92.904;2024-03-25T14:13:41;3.43;;;2.57;;
42886;SDS011;29032;56.028;92.904;2024-03-25T14:18:43;5.67;;;3.60;;
42886;SDS011;29032;56.028;92.904;2024-03-25T14:23:46;5.13;;;3.70;;
42886;SDS011;29032;56.028;92.904;2024-03-25T14:28:49;3.57;;;2.70;;
42886;SDS011;29032;56.028;92.904;2024-03-25T14:39:13;8.00;;;3.80;;
42886;SDS011;29032;56.028;92.904;2024-03-25T14:44:15;6.40;;;3.07;;
42886;SDS011;29032;56.028;92.904;2024-03-25T14:49:17;4.10;;;2.40;;
42886;SDS011;29032;56.028;92.904;2024-03-25T14:54:39;5.43;;;3.10;;
42886;SDS011;29032;56.028;92.904;2024-03-25T14:59:41;5.33;;;3.47;;
42886;SDS011;29032;56.028;92.904;2024-03-25T15:04:43;7.20;;;4.53;;
42886;SDS011;29032;56.028;92.904;2024-03-25T15:09:47;4.97;;;3.07;;
42886;SDS011;29032;56.028;92.904;2024-03-25T15:14:49;3.30;;;2.57;;
42886;SDS011;29032;56.028;92.904;2024-03-25T15:19:52;5.40;;;2.70;;
42886;SDS011;29032;56.028;92.904;2024-03-25T15:24:55;7.03;;;3.73;;
42886;SDS011;29032;56.028;92.904;2024-03-25T15:29:58;7.60;;;3.87;;
42886;SDS011;29032;56.028;92.904;2024-03-25T15:35:00;8.20;;;3.80;;
42886;SDS011;29032;56.028;92.904;2024-03-25T15:40:04;6.47;;;3.97;;
42886;SDS011;29032;56.028;92.904;2024-03-25T15:45:07;5.17;;;3.30;;
42886;SDS011;29032;56.028;92.904;2024-03-25T15:50:10;9.03;;;4.80;;
42886;SDS011;29032;56.028;92.904;2024-03-25T15:55:13;6.23;;;3.97;;
42886;SDS011;29032;56.028;92.904;2024-03-25T16:00:16;11.23;;;5.40;;
42886;SDS011;29032;56.028;92.904;2024-03-25T16:05:19;5.50;;;4.13;;
42886;SDS011;29032;56.028;92.904;2024-03-25T16:10:26;6.50;;;4.67;;
42886;SDS011;29032;56.028;92.904;2024-03-25T16:15:30;8.57;;;5.20;;
42886;SDS011;29032;56.028;92.904;2024-03-25T16:20:33;10.77;;;6.30;;
42886;SDS011;29032;56.028;92.904;2024-03-25T16:25:37;11.50;;;7.27;;
42886;SDS011;29032;56.028;92.904;2024-03-25T16:30:39;6.80;;;4.83;;
42886;SDS011;29032;56.028;92.904;2024-03-25T16:35:41;6.67;;;4.60;;
42886;SDS011;29032;56.028;92.904;2024-03-25T16:40:45;7.20;;;4.53;;
42886;SDS011;29032;56.028;92.904;2024-03-25T16:45:47;10.63;;;5.30;;
42886;SDS011;29032;56.028;92.904;2024-03-25T16:50:49;8.00;;;4.57;;
42886;SDS011;29032;56.028;92.904;2024-03-25T16:55:52;6.00;;;3.43;;
42886;SDS011;29032;56.028;92.904;2024-03-25T17:00:55;7.20;;;4.07;;
42886;SDS011;29032;56.028;92.904;2024-03-25T17:05:57;7.07;;;4.00;;
42886;SDS011;29032;56.028;92.904;2024-03-25T17:11:00;7.57;;;4.40;;
42886;SDS011;29032;56.028;92.904;2024-03-25T17:16:03;6.47;;;4.23;;
42886;SDS011;29032;56.028;92.904;2024-03-25T17:21:06;7.10;;;4.80;;
42886;SDS011;29032;56.028;92.904;2024-03-25T17:26:10;5.93;;;4.30;;
42886;SDS011;29032;56.028;92.904;2024-03-25T17:31:12;6.60;;;4.03;;
42886;SDS011;29032;56.028;92.904;2024-03-25T17:36:15;11.37;;;4.43;;
42886;SDS011;29032;56.028;92.904;2024-03-25T17:41:18;6.73;;;4.20;;
42886;SDS011;29032;56.028;92.904;2024-03-25T17:46:20;5.57;;;3.73;;
42886;SDS011;29032;56.028;92.904;2024-03-25T17:51:24;3.30;;;3.00;;
42886;SDS011;29032;56.028;92.904;2024-03-25T17:56:27;6.70;;;3.77;;
42886;SDS011;29032;56.028;92.904;2024-03-25T18:01:30;6.90;;;5.13;;
42886;SDS011;29032;56.028;92.904;2024-03-25T18:06:32;7.03;;;4.33;;
42886;SDS011;29032;56.028;92.904;2024-03-25T18:11:35;4.80;;;3.47;;
42886;SDS011;29032;56.028;92.904;2024-03-25T18:16:38;6.77;;;3.70;;
42886;SDS011;29032;56.028;92.904;2024-03-25T18:21:40;8.50;;;4.77;;
42886;SDS011;29032;56.028;92.904;2024-03-25T18:26:43;8.77;;;4.10;;
42886;SDS011;29032;56.028;92.904;2024-03-25T18:31:45;7.80;;;4.33;;
42886;SDS011;29032;56.028;92.904;2024-03-25T18:36:47;8.13;;;4.53;;
42886;SDS011;29032;56.028;92.904;2024-03-25T18:41:51;3.67;;;3.33;;
42886;SDS011;29032;56.028;92.904;2024-03-25T18:46:53;6.27;;;3.30;;
42886;SDS011;29032;56.028;92.904;2024-03-25T18:51:56;4.40;;;3.43;;
42886;SDS011;29032;56.028;92.904;2024-03-25T18:56:59;4.37;;;3.20;;
42886;SDS011;29032;56.028;92.904;2024-03-25T19:02:01;5.13;;;3.73;;
42886;SDS011;29032;56.028;92.904;2024-03-25T19:07:04;5.40;;;3.60;;
42886;SDS011;29032;56.028;92.904;2024-03-25T19:12:07;7.03;;;3.87;;
42886;SDS011;29032;56.028;92.904;2024-03-25T19:17:10;4.17;;;3.40;;
42886;SDS011;29032;56.028;92.904;2024-03-25T19:22:12;5.03;;;4.10;;
42886;SDS011;29032;56.028;92.904;2024-03-25T19:27:16;10.33;;;4.63;;
42886;SDS011;29032;56.028;92.904;2024-03-25T19:32:18;8.37;;;4.47;;
42886;SDS011;29032;56.028;92.904;2024-03-25T19:37:20;6.63;;;3.60;;
42886;SDS011;29032;56.028;92.904;2024-03-25T19:42:24;4.13;;;3.37;;
42886;SDS011;29032;56.028;92.904;2024-03-25T19:47:26;7.20;;;4.23;;
42886;SDS011;29032;56.028;92.904;2024-03-25T19:52:28;5.60;;;4.07;;
42886;SDS011;29032;56.028;92.904;2024-03-25T19:57:32;4.13;;;3.47;;
42886;SDS011;29032;56.028;92.904;2024-03-25T20:02:35;4.97;;;3.30;;
42886;SDS011;29032;56.028;92.904;2024-03-25T20:07:37;5.90;;;4.30;;
42886;SDS011;29032;56.028;92.904;2024-03-25T20:12:40;3.40;;;3.10;;
42886;SDS011;29032;56.028;92.904;2024-03-25T20:17:42;4.40;;;3.00;;
42886;SDS011;29032;56.028;92.904;2024-03-25T20:22:45;4.77;;;3.23;;
42886;SDS011;29032;56.028;92.904;2024-03-25T20:27:48;4.23;;;3.40;;
42886;SDS011;29032;56.028;92.904;2024-03-25T20:32:50;4.70;;;3.60;;
42886;SDS011;29032;56.028;92.904;2024-03-25T20:37:52;6.77;;;4.80;;
42886;SDS011;29032;56.028;92.904;2024-03-25T20:42:56;3.93;;;3.40;;
42886;SDS011;29032;56.028;92.904;2024-03-25T20:47:58;5.33;;;3.60;;
42886;SDS011;29032;56.028;92.904;2024-03-25T20:53:00;6.77;;;4.60;;
42886;SDS011;29032;56.028;92.904;2024-03-25T20:58:04;5.67;;;3.83;;
42886;SDS011;29032;56.028;92.904;2024-03-25T21:03:06;5.80;;;3.53;;
42886;SDS011;29032;56.028;92.904;2024-03-25T21:08:08;4.10;;;3.27;;
42886;SDS011;29032;56.028;92.904;2024-03-25T21:13:12;3.90;;;3.50;;
42886;SDS011;29032;56.028;92.904;2024-03-25T21:18:14;5.30;;;3.90;;
42886;SDS011;29032;56.028;92.904;2024-03-25T21:23:16;4.57;;;4.00;;
42886;SDS011;29032;56.028;92.904;2024-03-25T21:28:20;6.30;;;3.97;;
42886;SDS011;29032;56.028;92.904;2024-03-25T21:33:22;4.00;;;3.70;;
42886;SDS011;29032;56.028;92.904;2024-03-25T21:38:24;3.80;;;3.50;;
42886;SDS011;29032;56.028;92.904;2024-03-25T21:43:46;4.93;;;4.00;;
42886;SDS011;29032;56.028;92.904;2024-03-25T21:48:48;4.37;;;3.97;;
42886;SDS011;29032;56.028;92.904;2024-03-25T21:53:50;4.77;;;3.93;;
42886;SDS011;29032;56.028;92.904;2024-03-25T21:58:54;4.73;;;4.00;;
42886;SDS011;29032;56.028;92.904;2024-03-25T22:03:56;4.73;;;4.20;;
42886;SDS011;29032;56.028;92.904;2024-03-25T22:08:58;4.47;;;4.07;;
42886;SDS011;29032;56.028;92.904;2024-03-25T22:14:01;4.40;;;4.00;;
42886;SDS011;29032;56.028;92.904;2024-03-25T22:19:03;5.27;;;3.70;;
42886;SDS011;29032;56.028;92.904;2024-03-25T22:24:06;9.33;;;7.27;;
42886;SDS011;29032;56.028;92.904;2024-03-25T22:29:09;4.60;;;4.07;;
42886;SDS011;29032;56.028;92.904;2024-03-25T22:34:12;4.70;;;4.00;;
42886;SDS011;29032;56.028;92.904;2024-03-25T22:39:14;5.67;;;4.33;;
42886;SDS011;29032;56.028;92.904;2024-03-25T22:44:17;5.60;;;4.33;;
42886;SDS011;29032;56.028;92.904;2024-03-25T22:49:19;8.97;;;5.93;;
42886;SDS011;29032;56.028;92.904;2024-03-25T22:54:22;4.50;;;4.10;;
42886;SDS011;29032;56.028;92.904;2024-03-25T22:59:25;4.30;;;3.90;;
42886;SDS011;29032;56.028;92.904;2024-03-25T23:04:27;4.60;;;3.80;;
42886;SDS011;29032;56.028;92.904;2024-03-25T23:09:29;4.17;;;3.77;;
42886;SDS011;29032;56.028;92.904;2024-03-25T23:14:33;6.70;;;4.80;;
42886;SDS011;29032;56.028;92.904;2024-03-25T23:19:35;6.60;;;4.30;;
42886;SDS011;29032;56.028;92.904;2024-03-25T23:24:37;5.17;;;4.43;;
42886;SDS011;29032;56.028;92.904;2024-03-25T23:29:41;4.60;;;3.57;;
42886;SDS011;29032;56.028;92.904;2024-03-25T23:34:46;5.13;;;3.77;;
42886;SDS011;29032;56.028;92.904;2024-03-25T23:39:48;7.57;;;5.33;;
42886;SDS011;29032;56.028;92.904;2024-03-25T23:44:51;4.57;;;3.60;;
42886;SDS011;29032;56.028;92.904;2024-03-25T23:49:54;4.10;;;3.70;;
42886;SDS011;29032;56.028;92.904;2024-03-25T23:54:56;4.97;;;3.77;;
